Time;durP1;ratioP1;P1;durP2;ratioP2;P2;SDS_P1;SDS_P2;PMS_P1;PMS_P2;Temp;Humidity;BMP_temperature;BMP_pressure;BME280_temperature;BME280_humidity;BME280_pressure;Samples;Min_cycle;Max_cycle;Signal;HPM_P1;HPM_P2
2023/05/31 00:02:44;;;;;;;11.93;4.00;;;;;;;18.32;52.92;100016.81;7553768;33;38974;-77
2023/05/31 00:07:00;;;;;;;9.18;3.60;;;;;;;18.46;52.41;100016.69;7553896;33;40010;-78
2023/05/31 00:11:17;;;;;;;7.15;3.80;;;;;;;18.22;52.40;100020.66;7553778;33;38852;-78
2023/05/31 00:15:33;;;;;;;7.07;4.00;;;;;;;18.51;51.94;100011.03;7553166;33;37065;-78
2023/05/31 00:19:50;;;;;;;8.88;3.90;;;;;;;18.27;52.49;100011.44;7553616;33;39390;-77
2023/05/31 00:24:06;;;;;;;15.48;3.78;;;;;;;18.29;52.94;100012.72;7553402;33;39686;-78
2023/05/31 00:28:23;;;;;;;6.28;4.00;;;;;;;18.22;53.35;100009.63;7553294;33;38057;-77
2023/05/31 00:32:39;;;;;;;7.03;3.83;;;;;;;18.22;53.13;100012.38;7553325;33;37458;-78
2023/05/31 00:36:55;;;;;;;8.10;3.97;;;;;;;18.36;52.31;100004.78;7553248;33;39414;-77
2023/05/31 00:41:12;;;;;;;8.52;4.25;;;;;;;18.30;53.07;100011.59;7553195;33;41045;-78
2023/05/31 00:45:32;;;;;;;9.18;4.28;;;;;;;18.34;52.97;100009.81;7552336;33;38155;-78
2023/05/31 00:49:48;;;;;;;9.45;4.30;;;;;;;18.13;54.21;100022.56;7553005;33;37068;-78
2023/05/31 00:54:07;;;;;;;5.62;3.67;;;;;;;18.03;54.57;100029.16;7552911;33;39406;-78
2023/05/31 00:58:24;;;;;;;9.80;3.75;;;;;;;18.19;54.01;100022.09;7552460;33;39978;-78
2023/05/31 01:02:41;;;;;;;6.75;4.03;;;;;;;17.99;53.86;100028.16;7540063;33;38498;-77
2023/05/31 01:07:00;;;;;;;7.45;3.40;;;;;;;17.80;54.13;100031.91;7555953;33;37840;-78
2023/05/31 01:11:25;;;;;;;10.60;3.60;;;;;;;17.97;52.83;100027.66;7555761;33;39397;-77
2023/05/31 01:15:55;;;;;;;9.43;3.90;;;;;;;17.86;52.40;100024.34;7542738;33;38890;-78
2023/05/31 01:20:14;;;;;;;6.60;3.70;;;;;;;18.16;50.67;100024.66;7555780;33;38094;-78
2023/05/31 01:25:05;;;;;;;9.20;3.40;;;;;;;18.22;49.78;100028.94;7555590;33;37713;-77
2023/05/31 01:29:24;;;;;;;7.10;3.92;;;;;;;18.21;50.44;100024.53;7543272;33;39212;-78
2023/05/31 01:33:41;;;;;;;8.85;3.53;;;;;;;18.45;50.29;100020.59;7542414;33;40842;-78
2023/05/31 01:37:57;;;;;;;9.23;3.35;;;;;;;18.09;50.46;100032.59;7555491;33;38820;-78
2023/05/31 01:42:14;;;;;;;7.80;4.07;;;;;;;18.26;49.46;100021.62;7555425;33;36812;-77
2023/05/31 01:46:31;;;;;;;11.10;3.65;;;;;;;18.26;49.33;100021.62;7555559;33;39407;-78
2023/05/31 01:50:47;;;;;;;6.70;3.33;;;;;;;18.15;50.66;100020.28;7555424;33;40818;-78
2023/05/31 01:55:04;;;;;;;7.37;3.60;;;;;;;18.21;50.83;100019.00;7555297;33;38760;-78
2023/05/31 01:59:21;;;;;;;9.52;3.40;;;;;;;18.21;50.49;100027.28;7542007;33;37295;-78
2023/05/31 02:03:39;;;;;;;7.75;3.47;;;;;;;18.28;51.27;100033.19;7555082;33;39389;-78
2023/05/31 02:07:55;;;;;;;8.18;3.25;;;;;;;18.07;52.56;100038.41;7541636;33;38858;-78
2023/05/31 02:12:12;;;;;;;7.60;3.80;;;;;;;18.14;52.38;100024.16;7555148;33;38114;-78
2023/05/31 02:16:28;;;;;;;9.85;3.50;;;;;;;18.10;51.96;100023.19;7554455;33;36798;-76
2023/05/31 02:20:45;;;;;;;8.82;3.60;;;;;;;18.09;49.55;100029.81;7555036;33;39289;-75
2023/05/31 02:25:02;;;;;;;11.30;3.67;;;;;;;18.13;49.31;100023.37;7555005;33;39500;-78
2023/05/31 02:29:18;;;;;;;8.35;3.12;;;;;;;18.26;49.55;100013.34;7554990;33;37690;-77
2023/05/31 02:33:35;;;;;;;8.68;3.58;;;;;;;18.34;48.79;100022.81;7555024;33;37805;-77
2023/05/31 02:37:51;;;;;;;12.60;3.30;;;;;;;18.32;48.65;100023.13;7554827;33;40048;-78
2023/05/31 02:42:08;;;;;;;8.57;3.92;;;;;;;18.29;48.62;100026.53;7554810;33;39782;-77
2023/05/31 02:46:24;;;;;;;8.90;3.28;;;;;;;18.38;48.30;100029.31;7554814;33;38590;-78
2023/05/31 02:50:40;;;;;;;6.28;3.40;;;;;;;18.26;49.42;100020.81;7554593;33;37237;-78
2023/05/31 02:54:57;;;;;;;11.70;3.50;;;;;;;18.39;47.41;100026.25;7554819;33;40133;-78
2023/05/31 02:59:13;;;;;;;6.55;2.87;;;;;;;18.36;47.23;100035.16;7554557;33;40786;-77
2023/05/31 03:03:29;;;;;;;9.20;3.25;;;;;;;18.47;46.53;100032.94;7554622;33;37956;-78
2023/05/31 03:07:46;;;;;;;6.55;3.08;;;;;;;18.59;46.26;100029.56;7554606;33;37843;-78
2023/05/31 03:12:03;;;;;;;11.95;3.55;;;;;;;18.71;45.29;100035.31;7554527;33;40013;-78
2023/05/31 03:16:20;;;;;;;9.07;3.10;;;;;;;18.80;45.28;100035.31;7554548;33;39967;-77
2023/05/31 03:20:36;;;;;;;7.30;3.30;;;;;;;18.60;46.16;100033.16;7554182;33;37939;-78
2023/05/31 03:24:53;;;;;;;9.57;3.42;;;;;;;18.98;44.66;100029.84;7554268;33;37536;-77
2023/05/31 03:29:09;;;;;;;7.53;2.95;;;;;;;18.92;45.46;100045.75;7554472;33;39399;-78
2023/05/31 03:33:26;;;;;;;13.57;3.72;;;;;;;18.97;44.50;100053.09;7554405;33;40930;-77
2023/05/31 03:37:43;;;;;;;8.57;3.30;;;;;;;19.05;44.06;100049.53;7554207;33;38077;-77
2023/05/31 03:42:01;;;;;;;11.77;3.67;;;;;;;19.33;43.83;100042.59;7554194;33;37150;-78
2023/05/31 03:46:18;;;;;;;8.38;3.00;;;;;;;19.02;44.21;100047.41;7540848;33;40533;-78
2023/05/31 03:50:34;;;;;;;7.87;3.03;;;;;;;19.15;44.35;100040.94;7554063;33;40011;-78
2023/05/31 03:54:51;;;;;;;7.25;3.15;;;;;;;19.26;44.37;100042.22;7553971;33;38041;-78
2023/05/31 03:59:08;;;;;;;6.65;3.10;;;;;;;19.28;44.96;100048.28;7553866;33;37906;-77
2023/05/31 04:03:25;;;;;;;10.77;3.50;;;;;;;19.16;45.53;100052.78;7553859;33;39443;-78
2023/05/31 04:07:41;;;;;;;10.07;3.22;;;;;;;19.30;45.26;100061.78;7553745;33;40761;-78
2023/05/31 04:11:58;;;;;;;6.85;3.20;;;;;;;19.34;44.70;100062.75;7553946;33;37704;-78
2023/05/31 04:16:14;;;;;;;8.98;2.95;;;;;;;19.44;44.54;100076.25;7553470;33;37126;-78
2023/05/31 04:20:31;;;;;;;9.52;3.35;;;;;;;19.47;44.89;100072.00;7553586;33;40224;-78
2023/05/31 04:24:47;;;;;;;11.32;3.15;;;;;;;19.48;44.99;100077.22;7553513;33;39919;-77
2023/05/31 04:29:04;;;;;;;6.78;2.95;;;;;;;19.57;45.50;100073.63;7553488;33;38200;-77
2023/05/31 04:33:21;;;;;;;9.23;3.17;;;;;;;19.51;45.48;100075.75;7553478;33;37592;-77
2023/05/31 04:37:39;;;;;;;6.72;2.80;;;;;;;19.52;46.27;100078.22;7555346;33;39348;-78
2023/05/31 04:41:55;;;;;;;8.05;2.97;;;;;;;19.66;45.13;100077.22;7561282;33;40784;-78
2023/05/31 04:46:12;;;;;;;8.60;3.37;;;;;;;19.57;46.55;100074.44;7561625;33;38525;-78
2023/05/31 04:50:28;;;;;;;9.73;3.53;;;;;;;19.63;45.68;100077.87;7561581;33;37270;-77
2023/05/31 04:54:46;;;;;;;6.70;3.30;;;;;;;19.69;45.74;100076.56;7561184;33;39049;-78
2023/05/31 04:59:03;;;;;;;9.80;3.60;;;;;;;19.77;44.97;100084.06;7560918;33;40924;-78
2023/05/31 05:03:20;;;;;;;9.55;3.40;;;;;;;19.99;44.90;100085.84;7561174;33;38736;-78
2023/05/31 05:07:37;;;;;;;6.95;2.90;;;;;;;19.74;45.43;100095.78;7561127;33;37126;-78
2023/05/31 05:11:54;;;;;;;5.45;2.80;;;;;;;19.95;45.26;100095.94;7560475;33;39167;-78
2023/05/31 05:16:10;;;;;;;7.93;3.00;;;;;;;20.01;44.39;100093.81;7560747;33;40565;-78
2023/05/31 05:20:27;;;;;;;11.25;3.25;;;;;;;20.08;44.65;100102.44;7560733;33;38149;-78
2023/05/31 05:24:43;;;;;;;7.32;3.20;;;;;;;20.26;45.09;100100.44;7549613;33;37122;-78
2023/05/31 05:29:00;;;;;;;6.28;3.10;;;;;;;20.14;45.87;100103.06;7534998;33;39469;-78
2023/05/31 05:33:16;;;;;;;7.45;3.28;;;;;;;20.39;42.87;100106.94;7534906;33;40558;-78
2023/05/31 05:37:32;;;;;;;10.10;3.00;;;;;;;20.71;43.23;100104.72;7544356;33;38851;-78
2023/05/31 05:41:49;;;;;;;8.50;3.10;;;;;;;20.59;44.39;100108.97;7560310;33;37924;-78
2023/05/31 05:46:06;;;;;;;8.75;3.10;;;;;;;20.62;43.30;100111.09;7560090;33;40171;-78
2023/05/31 05:50:22;;;;;;;7.25;3.17;;;;;;;20.71;43.44;100113.03;7557263;33;39664;-78
2023/05/31 05:54:38;;;;;;;9.57;3.00;;;;;;;20.70;44.17;100116.97;7554746;33;38550;-77
2023/05/31 05:58:55;;;;;;;7.78;2.85;;;;;;;20.74;44.47;100131.75;7554858;33;37179;-78
2023/05/31 06:03:12;;;;;;;8.10;3.42;;;;;;;20.77;44.95;100131.09;7555273;33;40050;-77
2023/05/31 06:07:29;;;;;;;8.93;3.92;;;;;;;20.87;44.08;100136.28;7555003;33;40730;-78
2023/05/31 06:11:46;;;;;;;8.70;3.20;;;;;;;20.67;44.83;100134.25;7555006;33;38580;-78
2023/05/31 06:16:06;;;;;;;6.53;3.00;;;;;;;20.91;44.81;100140.00;7555118;33;37224;-78
2023/05/31 06:20:23;;;;;;;9.52;3.35;;;;;;;21.15;44.19;100131.06;7554980;33;40201;-77
2023/05/31 06:24:40;;;;;;;7.35;2.65;;;;;;;21.55;43.41;100135.41;7554971;33;39905;-79
2023/05/31 06:29:00;;;;;;;7.05;2.72;;;;;;;21.38;44.24;100141.87;7554839;33;37622;-78
2023/05/31 06:33:16;;;;;;;9.13;3.08;;;;;;;21.61;43.17;100136.03;7554677;33;36835;-77
2023/05/31 06:37:32;;;;;;;8.85;3.00;;;;;;;21.69;41.94;100137.94;7547407;33;40023;-70
2023/05/31 06:41:48;;;;;;;9.05;2.92;;;;;;;21.94;41.81;100133.31;7554315;33;40259;-70
2023/05/31 06:46:07;;;;;;;11.23;2.83;;;;;;;21.95;41.27;100140.47;7554849;33;38827;-70
2023/05/31 06:50:23;;;;;;;7.15;3.30;;;;;;;22.49;39.76;100148.81;7554903;33;36085;-70
2023/05/31 06:54:42;;;;;;;6.70;2.95;;;;;;;22.77;39.00;100144.56;7554474;33;40286;-70
2023/05/31 06:58:58;;;;;;;6.85;2.92;;;;;;;22.03;40.23;100136.81;7554568;33;40976;-71
2023/05/31 07:03:14;;;;;;;12.23;3.35;;;;;;;22.98;39.47;100136.13;7549236;33;38776;-70
2023/05/31 07:07:31;;;;;;;8.27;2.75;;;;;;;23.11;40.21;100132.22;7554563;33;37198;-71
2023/05/31 07:11:47;;;;;;;11.15;2.90;;;;;;;23.35;38.85;100123.06;7554669;33;39412;-69
2023/05/31 07:16:04;;;;;;;8.77;2.87;;;;;;;23.62;38.98;100118.69;7550892;33;41032;-72
2023/05/31 07:20:20;;;;;;;7.25;2.62;;;;;;;23.08;39.82;100124.56;7540517;33;38515;-72
2023/05/31 07:24:36;;;;;;;9.48;2.83;;;;;;;23.51;38.76;100125.91;7554272;33;37599;-71
2023/05/31 07:28:52;;;;;;;10.77;3.22;;;;;;;23.75;38.40;100124.22;7553542;33;39676;-74
2023/05/31 07:33:09;;;;;;;6.60;3.10;;;;;;;24.00;37.55;100122.19;7553203;33;40828;-73
2023/05/31 07:37:25;;;;;;;8.43;3.08;;;;;;;24.02;37.65;100116.25;7544882;33;37654;-74
2023/05/31 07:41:42;;;;;;;6.80;3.08;;;;;;;24.54;38.25;100121.69;7552743;33;37307;-72
2023/05/31 07:45:59;;;;;;;8.82;3.15;;;;;;;24.11;36.29;100108.56;7537635;33;39426;-72
2023/05/31 07:50:15;;;;;;;8.25;3.25;;;;;;;24.56;35.40;100113.00;7528854;33;40541;-71
2023/05/31 07:54:31;;;;;;;8.43;3.20;;;;;;;24.20;36.55;100100.88;7547532;33;37949;-71
2023/05/31 07:58:47;;;;;;;8.63;3.20;;;;;;;24.04;38.08;100106.38;7545325;33;37141;-72
2023/05/31 08:03:05;;;;;;;8.23;2.87;;;;;;;24.38;36.52;100107.69;7553835;33;39411;-72
2023/05/31 08:07:21;;;;;;;6.60;2.90;;;;;;;24.43;37.40;100109.41;7553333;33;39902;-79
2023/05/31 08:11:38;;;;;;;8.18;3.47;;;;;;;24.81;35.49;100108.03;7543666;33;38101;-79
2023/05/31 08:15:54;;;;;;;8.93;2.80;;;;;;;24.91;35.19;100106.69;7553241;33;37689;-78
2023/05/31 08:20:13;;;;;;;11.32;3.50;;;;;;;25.07;37.38;100104.66;7552884;33;40175;-76
2023/05/31 08:24:30;;;;;;;8.13;3.05;;;;;;;24.82;35.90;100117.19;7553440;33;40832;-76
2023/05/31 08:28:46;;;;;;;7.10;2.90;;;;;;;24.52;35.69;100112.84;7552278;33;38544;-78
2023/05/31 08:33:02;;;;;;;7.40;3.08;;;;;;;24.72;35.06;100105.41;7550332;33;36968;-78
2023/05/31 08:37:20;;;;;;;8.30;3.50;;;;;;;24.91;37.17;100106.69;7552292;33;40185;-77
2023/05/31 08:42:01;;;;;;;7.95;3.33;;;;;;;25.28;34.74;100118.34;7542371;33;39676;-79
2023/05/31 08:46:19;;;;;;;11.90;3.10;;;;;;;25.33;35.39;100117.25;7522795;33;38633;-78
2023/05/31 08:50:35;;;;;;;7.55;2.78;;;;;;;25.22;38.10;100122.56;7538954;33;37888;-79
2023/05/31 08:54:53;;;;;;;8.90;2.97;;;;;;;25.32;37.65;100115.63;7541655;33;39579;-79
2023/05/31 08:59:11;;;;;;;12.80;3.47;;;;;;;25.66;35.52;100119.59;7536796;33;40012;-78
2023/05/31 09:03:27;;;;;;;7.55;2.60;;;;;;;26.05;37.49;100118.78;7538066;33;36960;-78
2023/05/31 09:07:44;;;;;;;7.65;2.80;;;;;;;26.19;37.07;100119.06;7537267;33;38330;-76
2023/05/31 09:12:00;;;;;;;7.72;3.03;;;;;;;26.43;34.88;100111.53;7541374;33;39599;-77
2023/05/31 09:16:16;;;;;;;9.32;3.15;;;;;;;26.72;36.44;100107.25;7550918;33;40968;-78
2023/05/31 09:20:33;;;;;;;11.05;3.15;;;;;;;26.20;38.20;100117.09;7552155;33;38812;-78
2023/05/31 09:24:59;;;;;;;7.55;2.85;;;;;;;26.67;35.97;100104.78;7553897;33;37104;-78
2023/05/31 09:29:17;;;;;;;7.70;3.12;;;;;;;26.84;34.41;100108.22;7555819;33;39437;-84
2023/05/31 09:33:44;;;;;;;7.72;2.85;;;;;;;26.68;36.98;100116.75;7555679;33;41286;-71
2023/05/31 09:38:05;;;;;;;10.07;2.87;;;;;;;27.16;34.95;100105.94;7554437;33;38001;-81
2023/05/31 09:42:21;;;;;;;8.40;2.92;;;;;;;27.04;34.79;100100.56;7542497;33;37249;-81
2023/05/31 09:46:38;;;;;;;6.03;2.95;;;;;;;26.75;34.60;100106.53;7555428;33;39772;-79
2023/05/31 09:50:54;;;;;;;6.60;3.00;;;;;;;27.13;34.58;100103.88;7542402;33;40634;-80
2023/05/31 09:55:14;;;;;;;9.98;2.83;;;;;;;27.21;35.79;100105.63;7554590;33;38676;-74
2023/05/31 09:59:32;;;;;;;5.55;2.85;;;;;;;27.47;31.73;100099.22;7554865;33;37781;-73
2023/05/31 10:03:52;;;;;;;8.82;2.87;;;;;;;27.47;29.21;100095.63;7551134;33;39545;-73
2023/05/31 10:08:08;;;;;;;7.25;3.10;;;;;;;27.58;33.41;100096.56;7553909;33;39623;-73
2023/05/31 10:12:26;;;;;;;5.60;3.25;;;;;;;27.33;31.12;100087.81;7554183;33;38240;-73
2023/05/31 10:16:54;;;;;;;7.53;2.70;;;;;;;27.58;29.85;100088.16;7546146;33;36836;-73
2023/05/31 10:21:22;;;;;;;6.20;3.17;;;;;;;27.46;29.75;100085.63;7518710;33;39937;-74
2023/05/31 10:25:44;;;;;;;4.12;2.42;;;;;;;27.46;29.01;100080.03;7553145;33;40799;-71
2023/05/31 10:30:05;;;;;;;10.47;2.80;;;;;;;27.64;31.37;100072.62;7537300;33;37976;-72
2023/05/31 10:34:26;;;;;;;6.28;2.60;;;;;;;27.55;29.65;100069.31;7535294;33;38121;-73
2023/05/31 10:39:05;;;;;;;7.03;3.20;;;;;;;28.23;31.80;100074.91;7541260;33;39930;-73
2023/05/31 10:43:30;;;;;;;5.97;3.03;;;;;;;27.99;28.21;100076.25;7536728;33;40739;-73
2023/05/31 10:48:11;;;;;;;5.60;2.80;;;;;;;27.91;28.29;100072.56;7543285;33;38766;-72
2023/05/31 10:52:33;;;;;;;6.00;2.62;;;;;;;28.51;30.47;100067.97;7537094;33;37880;-73
2023/05/31 10:56:57;;;;;;;6.80;3.12;;;;;;;28.87;27.06;100071.09;7536613;33;39115;-70
2023/05/31 11:01:14;;;;;;;8.32;3.00;;;;;;;29.07;29.04;100063.22;7538825;33;40085;-75
2023/05/31 11:05:31;;;;;;;7.55;3.35;;;;;;;29.49;26.99;100068.25;7548651;33;38820;-72
2023/05/31 11:09:59;;;;;;;10.80;3.15;;;;;;;29.47;26.65;100064.25;7536519;33;36977;-83
2023/05/31 11:14:16;;;;;;;6.57;3.00;;;;;;;29.88;27.46;100053.59;7527922;33;39868;-80
2023/05/31 11:18:40;;;;;;;7.37;3.30;;;;;;;30.44;25.92;100050.50;7549146;33;40006;-78
2023/05/31 11:23:18;;;;;;;8.30;3.40;;;;;;;30.57;26.50;100045.28;7541793;33;38042;-72
2023/05/31 11:27:39;;;;;;;5.87;3.15;;;;;;;30.14;24.75;100048.84;7554275;33;37918;-75
2023/05/31 11:31:58;;;;;;;6.10;2.90;;;;;;;30.07;24.03;100043.22;7540979;33;40546;-73
2023/05/31 11:36:15;;;;;;;6.62;2.90;;;;;;;29.90;27.79;100028.72;7554386;33;39971;-74
2023/05/31 11:40:31;;;;;;;8.80;2.97;;;;;;;29.31;25.50;100017.66;7553873;33;38120;-74
2023/05/31 11:44:49;;;;;;;7.40;2.97;;;;;;;29.99;28.18;100019.09;7554116;33;38271;-75
2023/05/31 11:49:06;;;;;;;6.60;2.97;;;;;;;30.28;26.03;100019.94;7540938;33;39772;-76
2023/05/31 11:53:22;;;;;;;9.38;3.20;;;;;;;30.33;23.12;100009.09;7554212;33;39704;-74
2023/05/31 11:57:44;;;;;;;7.70;3.33;;;;;;;30.51;22.03;100006.31;7540306;33;38773;-74
2023/05/31 12:02:01;;;;;;;6.15;2.80;;;;;;;30.38;22.63;100007.13;7550719;33;36988;-75
2023/05/31 12:06:18;;;;;;;6.87;3.30;;;;;;;30.70;25.81;100002.28;7551826;33;38976;-76
2023/05/31 12:10:35;;;;;;;4.50;2.83;;;;;;;31.08;26.45;100002.63;7551294;33;40074;-75
2023/05/31 12:14:52;;;;;;;7.30;3.30;;;;;;;31.30;24.09;99998.91;7552638;33;38062;-74
2023/05/31 12:19:15;;;;;;;4.62;2.70;;;;;;;31.40;20.84;100001.69;7540190;33;37000;-75
2023/05/31 12:23:31;;;;;;;6.28;3.00;;;;;;;31.36;21.88;99998.09;7540713;33;39407;-75
2023/05/31 12:27:47;;;;;;;6.68;3.10;;;;;;;31.24;22.20;99990.09;7553453;33;39988;-74
2023/05/31 12:32:05;;;;;;;8.05;3.42;;;;;;;30.57;26.54;99992.63;7553481;33;38818;-76
2023/05/31 12:36:22;;;;;;;9.25;2.90;;;;;;;31.15;25.11;99978.44;7553616;33;36117;-76
2023/05/31 12:40:43;;;;;;;4.35;2.70;;;;;;;31.14;24.04;99980.47;7553112;33;39508;-76
2023/05/31 12:45:06;;;;;;;7.43;2.62;;;;;;;31.69;26.04;99970.56;7552683;33;40164;-71
2023/05/31 12:49:24;;;;;;;5.87;3.12;;;;;;;31.70;23.33;99960.91;7542736;33;37780;-80
2023/05/31 12:53:41;;;;;;;6.93;2.53;;;;;;;31.75;21.75;99970.94;7540208;33;36158;-80
2023/05/31 12:57:58;;;;;;;8.02;2.95;;;;;;;31.06;24.51;99970.44;7529580;33;38788;-79
2023/05/31 13:02:21;;;;;;;;;;;;;;;30.87;22.06;99977.31;7543527;33;40032;-80
2023/05/31 13:06:40;;;;;;;6.85;3.00;;;;;;;31.61;21.38;99957.75;7540765;33;37247;-79
2023/05/31 13:10:56;;;;;;;9.63;2.83;;;;;;;31.54;22.87;99949.34;7545073;33;37001;-81
2023/05/31 13:15:13;;;;;;;5.90;2.85;;;;;;;31.16;22.20;99949.09;7552581;33;38938;-81
2023/05/31 13:19:29;;;;;;;6.82;2.87;;;;;;;30.17;26.80;99954.44;7553190;33;40777;-81
2023/05/31 13:23:46;;;;;;;7.78;2.80;;;;;;;31.51;24.04;99941.69;7553164;33;38568;-81
2023/05/31 13:28:02;;;;;;;9.82;3.45;;;;;;;30.94;22.58;99946.34;7553780;33;37893;-81
2023/05/31 13:32:19;;;;;;;9.40;3.17;;;;;;;30.93;22.94;99941.13;7553406;33;40836;-81
2023/05/31 13:36:36;;;;;;;6.75;3.05;;;;;;;31.18;21.76;99929.78;7554975;33;40808;-81
2023/05/31 13:40:53;;;;;;;9.20;3.15;;;;;;;31.18;22.11;99933.37;7554946;33;38030;-82
2023/05/31 13:45:10;;;;;;;7.18;3.05;;;;;;;30.12;22.95;99927.56;7542680;33;37768;-81
2023/05/31 13:49:26;;;;;;;6.07;3.17;;;;;;;30.73;25.20;99933.13;7555772;33;40040;-81
2023/05/31 13:53:43;;;;;;;10.38;3.30;;;;;;;30.07;22.70;99925.16;7555667;33;39983;-81
2023/05/31 13:57:59;;;;;;;7.28;3.00;;;;;;;30.60;24.02;99917.91;7550136;33;172434;-82
2023/05/31 14:02:16;;;;;;;8.27;3.30;;;;;;;30.63;22.71;99917.06;7555462;33;37795;-81
2023/05/31 14:06:32;;;;;;;5.68;2.92;;;;;;;30.60;22.41;99917.91;7555084;33;38470;-81
2023/05/31 14:10:49;;;;;;;7.20;3.37;;;;;;;30.27;24.53;99903.88;7554626;33;39938;-81
2023/05/31 14:15:05;;;;;;;9.25;3.33;;;;;;;30.33;22.68;99893.00;7555288;33;38734;-81
2023/05/31 14:19:22;;;;;;;5.87;3.15;;;;;;;29.99;22.86;99907.47;7555119;33;36925;-82
2023/05/31 14:23:38;;;;;;;12.48;3.00;;;;;;;31.31;24.37;99894.31;7555342;33;39957;-82
2023/05/31 14:27:54;;;;;;;6.97;2.58;;;;;;;31.62;22.96;99897.38;7555381;33;39961;-81
2023/05/31 14:32:14;;;;;;;6.55;3.15;;;;;;;31.66;23.17;99894.53;7555115;33;38597;-81
2023/05/31 14:36:31;;;;;;;8.63;2.83;;;;;;;31.62;24.46;99886.09;7555322;33;37275;-81
2023/05/31 14:40:51;;;;;;;6.40;3.05;;;;;;;32.48;25.50;99884.56;7555263;33;40146;-81
2023/05/31 14:45:08;;;;;;;5.68;3.17;;;;;;;32.97;23.78;99884.41;7554994;33;39011;-82
2023/05/31 14:49:24;;;;;;;7.00;3.42;;;;;;;33.04;22.27;99887.16;7554886;33;38766;-81
2023/05/31 14:53:40;;;;;;;8.82;3.22;;;;;;;33.13;20.96;99891.06;7555118;33;37833;-82
2023/05/31 14:57:56;;;;;;;10.15;3.30;;;;;;;32.69;22.10;99883.53;7554883;33;40064;-81
2023/05/31 15:02:13;;;;;;;11.55;3.03;;;;;;;31.82;22.94;99891.97;7554793;33;40029;-82
2023/05/31 15:06:29;;;;;;;7.75;3.28;;;;;;;32.19;23.48;99880.00;7554874;33;37959;-82
2023/05/31 15:10:45;;;;;;;8.40;3.10;;;;;;;32.13;22.01;99876.06;7554844;33;35832;-82
2023/05/31 15:15:03;;;;;;;8.00;3.15;;;;;;;32.13;21.48;99878.03;7554819;33;40189;-82
2023/05/31 15:19:19;;;;;;;5.25;3.12;;;;;;;31.72;23.98;99873.13;7554813;33;39858;-82
2023/05/31 15:23:35;;;;;;;5.87;3.03;;;;;;;31.97;23.66;99881.38;7553756;33;37811;-81
2023/05/31 15:27:52;;;;;;;5.95;3.37;;;;;;;32.17;22.11;99870.38;7554819;33;38320;-82
2023/05/31 15:32:08;;;;;;;5.87;3.08;;;;;;;32.23;23.03;99871.50;7554525;33;39070;-81
2023/05/31 15:36:24;;;;;;;6.32;3.42;;;;;;;32.30;23.27;99867.81;7554509;33;40755;-82
2023/05/31 15:40:41;;;;;;;7.82;3.53;;;;;;;32.19;23.96;99868.72;7554581;33;38016;-82
2023/05/31 15:44:57;;;;;;;6.68;3.12;;;;;;;31.92;23.61;99870.56;7554327;33;37882;-82
2023/05/31 15:49:14;;;;;;;9.27;3.53;;;;;;;31.95;24.57;99870.53;7554470;33;39321;-81
2023/05/31 15:53:30;;;;;;;6.47;3.40;;;;;;;32.09;24.13;99863.97;7554440;33;39843;-82
2023/05/31 15:57:46;;;;;;;5.12;3.10;;;;;;;31.83;25.03;99862.59;7554106;33;37908;-82
2023/05/31 16:02:03;;;;;;;10.35;3.35;;;;;;;31.21;22.91;99858.56;7554236;33;37871;-82
2023/05/31 16:06:19;;;;;;;8.20;3.33;;;;;;;30.93;23.80;99860.31;7554221;33;39624;-82
2023/05/31 16:10:35;;;;;;;7.93;3.50;;;;;;;30.61;25.25;99861.22;7540972;33;40767;-82
2023/05/31 16:14:52;;;;;;;9.35;3.33;;;;;;;31.22;25.02;99846.09;7540877;33;39243;-82
2023/05/31 16:19:08;;;;;;;9.98;3.30;;;;;;;31.21;25.33;99856.53;7554005;33;37875;-82
2023/05/31 16:23:24;;;;;;;8.30;3.70;;;;;;;31.15;26.27;99854.56;7553776;33;40059;-82
2023/05/31 16:27:41;;;;;;;7.90;3.50;;;;;;;30.58;25.34;99853.59;7553791;33;40296;-82
2023/05/31 16:31:58;;;;;;;8.63;3.58;;;;;;;30.53;26.40;99848.41;7553671;33;38078;-83
2023/05/31 16:36:14;;;;;;;9.63;3.35;;;;;;;30.37;25.83;99845.22;7539443;33;36795;-81
2023/05/31 16:40:31;;;;;;;8.40;3.67;;;;;;;30.58;25.70;99847.97;7553523;33;39408;-82
2023/05/31 16:44:48;;;;;;;8.32;3.62;;;;;;;30.52;26.54;99846.78;7553288;33;39863;-81
2023/05/31 16:49:04;;;;;;;6.68;3.58;;;;;;;30.44;26.67;99853.63;7553340;33;38830;-81
2023/05/31 16:53:22;;;;;;;9.25;3.62;;;;;;;30.32;27.32;99846.41;7553259;33;37185;-82
2023/05/31 16:57:38;;;;;;;8.88;3.47;;;;;;;30.04;27.75;99855.69;7552917;33;39122;-82
2023/05/31 17:01:55;;;;;;;7.50;3.37;;;;;;;30.09;27.58;99861.69;7553091;33;40077;-81
2023/05/31 17:06:11;;;;;;;6.12;3.15;;;;;;;29.74;27.56;99859.69;7552843;33;38756;-81
2023/05/31 17:10:28;;;;;;;8.65;3.70;;;;;;;29.89;28.14;99858.53;7552835;33;37694;-82
2023/05/31 17:14:44;;;;;;;9.85;3.92;;;;;;;29.31;28.09;99857.63;7552726;33;39070;-82
2023/05/31 17:19:01;;;;;;;9.10;3.60;;;;;;;29.49;28.84;99857.66;7552561;33;40196;-81
2023/05/31 17:23:17;;;;;;;11.15;4.75;;;;;;;29.47;29.03;99854.44;7552353;33;38054;-81
2023/05/31 17:27:33;;;;;;;8.50;3.75;;;;;;;29.28;28.99;99852.81;7552437;33;37895;-81
2023/05/31 17:31:50;;;;;;;14.35;6.57;;;;;;;28.97;29.98;99866.31;7552354;33;39316;-81
2023/05/31 17:36:06;;;;;;;18.70;6.40;;;;;;;28.88;29.82;99865.09;7552241;33;39756;-81
2023/05/31 17:40:23;;;;;;;10.95;4.93;;;;;;;28.71;29.84;99853.38;7551851;33;38000;-81
2023/05/31 17:44:39;;;;;;;6.62;3.50;;;;;;;28.45;30.41;99846.81;7552618;33;38123;-81
2023/05/31 17:48:55;;;;;;;6.82;2.87;;;;;;;28.39;30.45;99859.62;7555784;33;39273;-81
2023/05/31 17:53:12;;;;;;;8.55;4.12;;;;;;;28.10;31.42;99859.41;7555774;33;40656;-82
2023/05/31 17:57:29;;;;;;;9.88;3.80;;;;;;;28.02;31.22;99863.37;7555557;33;38184;-81
2023/05/31 18:01:47;;;;;;;9.65;3.83;;;;;;;27.85;31.28;99859.19;7555660;33;37082;-81
2023/05/31 18:06:06;;;;;;;9.90;3.90;;;;;;;27.35;32.30;99855.94;7555581;33;38239;-81
2023/05/31 18:10:22;;;;;;;9.32;3.80;;;;;;;27.16;32.05;99859.72;7555557;33;39625;-81
2023/05/31 18:14:38;;;;;;;8.10;3.78;;;;;;;26.97;32.02;99867.12;7555394;33;37931;-81
2023/05/31 18:18:55;;;;;;;8.50;3.75;;;;;;;26.87;32.59;99867.78;7555385;33;37177;-81
2023/05/31 18:23:12;;;;;;;7.78;3.75;;;;;;;26.71;34.44;99864.37;7555145;33;39362;-81
2023/05/31 18:27:28;;;;;;;8.27;3.90;;;;;;;26.54;34.89;99866.50;7555340;33;39755;-81
2023/05/31 18:31:44;;;;;;;10.60;4.30;;;;;;;26.17;35.37;99864.37;7555200;33;38481;-81
2023/05/31 18:36:00;;;;;;;8.48;3.87;;;;;;;26.23;33.87;99868.47;7555335;33;37188;-81
2023/05/31 18:40:17;;;;;;;6.03;3.53;;;;;;;25.91;35.31;99878.31;7555205;33;39464;-82
2023/05/31 18:44:33;;;;;;;11.63;4.60;;;;;;;25.76;35.73;99878.06;7540577;33;39936;-79
2023/05/31 18:48:50;;;;;;;8.30;4.00;;;;;;;25.67;36.43;99889.47;7552724;33;38624;-80
2023/05/31 18:53:06;;;;;;;17.83;4.57;;;;;;;25.57;36.89;99897.66;7555097;33;38303;-79
2023/05/31 18:57:22;;;;;;;15.45;4.22;;;;;;;25.05;38.91;99900.63;7553896;33;39238;-80
2023/05/31 19:01:41;;;;;;;11.52;3.97;;;;;;;24.93;38.71;99904.38;7554466;33;39014;-79
2023/05/31 19:05:58;;;;;;;9.20;4.37;;;;;;;24.67;39.12;99913.38;7541357;33;39113;-79
2023/05/31 19:10:15;;;;;;;9.15;3.85;;;;;;;24.78;39.26;99919.16;7554231;33;37331;-78
2023/05/31 19:14:31;;;;;;;6.95;3.80;;;;;;;24.50;40.53;99916.53;7554693;33;39419;-79
2023/05/31 19:18:47;;;;;;;8.10;4.15;;;;;;;24.59;40.57;99925.50;7552455;33;40869;-79
2023/05/31 19:23:04;;;;;;;6.93;3.60;;;;;;;24.30;41.08;99926.78;7530987;33;37929;-79
2023/05/31 19:27:21;;;;;;;8.38;3.50;;;;;;;24.05;41.03;99926.22;7545762;33;37913;-78
2023/05/31 19:31:37;;;;;;;7.53;3.80;;;;;;;24.08;40.85;99931.06;7546253;33;39348;-78
2023/05/31 19:35:54;;;;;;;8.57;4.00;;;;;;;23.78;41.37;99934.22;7537389;33;40022;-78
2023/05/31 19:40:10;;;;;;;8.02;3.85;;;;;;;23.70;41.07;99938.81;7538622;33;37035;-79
2023/05/31 19:44:27;;;;;;;7.75;3.75;;;;;;;23.56;41.29;99935.62;7534849;33;37893;-79
2023/05/31 19:48:43;;;;;;;10.27;4.22;;;;;;;23.43;41.99;99946.03;7535715;33;39181;-79
2023/05/31 19:52:59;;;;;;;8.52;4.07;;;;;;;23.28;42.62;99944.00;7537716;33;39981;-79
2023/05/31 19:57:16;;;;;;;10.70;4.30;;;;;;;23.39;42.76;99939.56;7538839;33;36644;-79
2023/05/31 20:01:32;;;;;;;9.43;3.78;;;;;;;23.13;43.39;99949.16;7535029;33;36879;-79